CheckWX is a tool to help pilots better visualize weather data.  It is not intended as a substitute for an official pre-flight weather briefing.

18:00:48 UTC

EIKN METAR
Ireland West Knock Airport
Charleston, Ireland
Current

31 mins ago

EIKN 171730Z 19014KT 160V230 9999 SCT019CB SCT024 BKN035 07/05 Q0998 NOSIG
Observed
Feb-17 @ 17:30 UTC
Wind
  • 190° at 14 KTS
Visibility
10,000+ meters
Flight Rules
VFR
Cloud Levels
  • Scattered at 1,900' AGL
  • Scattered at 2,400' AGL
  • Broken at 3,500' AGL
Temperature
C / 45°F
Dewpoint
C / 41°F
Humidity
87%
Altimeter
29.47" Hg
Pressure
997.92 hPa
Previous

1 hour ago

EIKN 171700Z 19014KT 150V220 9999 FEW020CB SCT024 07/05 Q0998 NOSIG
Observed
Feb-17 @ 17:00 UTC
Wind
  • 190° at 14 KTS
Visibility
10,000+ meters
Flight Rules
VFR
Cloud Levels
  • Few at 2,000' AGL
  • Scattered at 2,400' AGL
Temperature
C / 45°F
Dewpoint
C / 41°F
Humidity
87%
Altimeter
29.47" Hg
Pressure
997.92 hPa
Previous

2 hours ago

EIKN 171630Z 19014KT 150V220 9999 SCT020CB SCT025 BKN042 07/06 Q0998 NOSIG
Observed
Feb-17 @ 16:30 UTC
Wind
  • 190° at 14 KTS
Visibility
10,000+ meters
Flight Rules
VFR
Cloud Levels
  • Scattered at 2,000' AGL
  • Scattered at 2,500' AGL
  • Broken at 4,200' AGL
Temperature
C / 45°F
Dewpoint
C / 43°F
Humidity
93%
Altimeter
29.47" Hg
Pressure
997.92 hPa